createdAt,value
2023-06-29T00:01:28.980Z,2.22
2023-06-29T00:03:55.759Z,2.00
2023-06-29T00:06:22.496Z,1.90
2023-06-29T00:08:49.206Z,2.20
2023-06-29T00:11:16.088Z,2.00
2023-06-29T00:13:43.014Z,1.88
2023-06-29T00:16:09.838Z,2.10
2023-06-29T00:18:37.034Z,2.72
2023-06-29T00:21:05.777Z,2.10
2023-06-29T00:23:35.269Z,2.28
2023-06-29T00:26:03.907Z,2.08
2023-06-29T00:28:30.643Z,2.08
2023-06-29T00:30:57.923Z,2.15
2023-06-29T00:33:27.731Z,2.20
2023-06-29T00:35:54.484Z,1.88
2023-06-29T00:38:22.633Z,2.20
2023-06-29T00:40:49.941Z,1.80
2023-06-29T00:43:19.042Z,1.95
2023-06-29T00:45:45.909Z,1.70
2023-06-29T00:48:13.869Z,1.95
2023-06-29T00:50:41.301Z,2.10
2023-06-29T00:53:08.400Z,2.20
2023-06-29T00:55:35.784Z,2.05
2023-06-29T00:58:02.666Z,2.20
2023-06-29T01:00:29.620Z,1.98
2023-06-29T01:02:57.089Z,1.92
2023-06-29T01:05:24.179Z,1.90
2023-06-29T01:07:59.237Z,1.92
2023-06-29T01:10:28.175Z,2.20
2023-06-29T01:12:55.529Z,2.20
2023-06-29T01:15:23.165Z,2.20
2023-06-29T01:17:54.312Z,2.20
2023-06-29T01:20:26.961Z,2.40
2023-06-29T01:23:00.258Z,2.35
2023-06-29T01:25:28.581Z,2.35
2023-06-29T01:27:57.351Z,2.30
2023-06-29T01:30:24.577Z,1.98
2023-06-29T01:32:51.529Z,2.40
2023-06-29T01:35:20.121Z,2.45
2023-06-29T01:37:59.263Z,2.40
2023-06-29T01:40:29.269Z,2.30
2023-06-29T01:42:58.646Z,2.10
2023-06-29T01:45:26.323Z,2.20
2023-06-29T01:47:56.484Z,2.40
2023-06-29T01:50:23.950Z,2.22
2023-06-29T01:52:50.775Z,2.45
2023-06-29T01:55:17.592Z,2.30
2023-06-29T01:57:44.350Z,2.17
2023-06-29T02:00:11.713Z,2.30
2023-06-29T02:02:41.657Z,2.00
2023-06-29T02:05:09.100Z,2.30
2023-06-29T02:07:36.073Z,1.80
2023-06-29T02:10:03.464Z,2.17
2023-06-29T02:12:31.545Z,2.28
2023-06-29T02:14:58.335Z,1.92
2023-06-29T02:17:25.137Z,2.03
2023-06-29T02:19:51.865Z,2.10
2023-06-29T02:22:18.601Z,2.45
2023-06-29T02:24:45.338Z,2.60
2023-06-29T02:27:12.160Z,2.20
2023-06-29T02:29:38.857Z,2.15
2023-06-29T02:32:06.202Z,2.15
2023-06-29T02:34:33.210Z,2.33
2023-06-29T02:37:00.046Z,2.47
2023-06-29T02:39:26.901Z,2.60
2023-06-29T02:41:54.460Z,2.13
2023-06-29T02:44:21.292Z,1.98
2023-06-29T02:46:48.168Z,2.42
2023-06-29T02:49:16.411Z,1.88
2023-06-29T02:51:43.891Z,2.40
2023-06-29T02:54:13.438Z,2.20
2023-06-29T02:56:40.236Z,2.08
2023-06-29T02:59:07.082Z,2.08
2023-06-29T03:01:33.972Z,2.20
2023-06-29T03:04:00.850Z,2.40
2023-06-29T03:06:27.617Z,2.70
2023-06-29T03:08:54.416Z,2.50
2023-06-29T03:11:21.106Z,2.53
2023-06-29T03:13:51.066Z,2.30
2023-06-29T03:16:18.156Z,2.65
2023-06-29T03:18:45.172Z,2.20
2023-06-29T03:21:17.784Z,2.30
2023-06-29T03:23:46.012Z,2.25
2023-06-29T03:26:13.787Z,2.03
2023-06-29T03:28:40.639Z,1.80
2023-06-29T03:31:07.492Z,2.00
2023-06-29T03:33:34.370Z,1.80
2023-06-29T03:36:01.149Z,2.15
2023-06-29T03:38:27.958Z,2.50
2023-06-29T03:40:54.676Z,2.28
2023-06-29T03:43:21.401Z,2.28
2023-06-29T03:45:48.122Z,2.25
2023-06-29T03:48:14.996Z,2.55
2023-06-29T03:50:41.793Z,2.17
2023-06-29T03:53:09.429Z,2.40
2023-06-29T03:55:36.252Z,2.40
2023-06-29T03:58:02.978Z,2.03
2023-06-29T04:00:29.763Z,2.58
2023-06-29T04:02:56.686Z,2.22
2023-06-29T04:05:23.512Z,2.42
2023-06-29T04:07:50.991Z,2.10
2023-06-29T04:10:17.756Z,2.10
2023-06-29T04:12:45.018Z,1.95
2023-06-29T04:15:11.908Z,2.40
2023-06-29T04:17:38.773Z,2.45
2023-06-29T04:20:06.196Z,10.77
2023-06-29T04:22:32.945Z,8.95
2023-06-29T04:24:59.662Z,3.10
2023-06-29T04:27:26.355Z,2.80
2023-06-29T04:29:53.103Z,2.95
2023-06-29T04:32:19.843Z,3.28
2023-06-29T04:34:48.919Z,2.70
2023-06-29T04:37:15.929Z,2.65
2023-06-29T04:39:42.760Z,2.53
2023-06-29T04:42:14.289Z,2.67
2023-06-29T04:44:41.199Z,3.40
2023-06-29T04:47:08.182Z,3.17
2023-06-29T04:49:40.334Z,3.42
2023-06-29T04:52:11.085Z,2.60
2023-06-29T04:54:38.175Z,2.92
2023-06-29T04:57:05.131Z,3.08
2023-06-29T04:59:31.947Z,2.90
2023-06-29T05:01:58.793Z,3.13
2023-06-29T05:04:25.639Z,2.97
2023-06-29T05:06:52.592Z,3.20
2023-06-29T05:09:19.332Z,3.03
2023-06-29T05:11:46.099Z,3.17
2023-06-29T05:14:12.851Z,3.47
2023-06-29T05:16:39.648Z,3.10
2023-06-29T05:19:06.483Z,3.30
2023-06-29T05:21:33.281Z,3.20
2023-06-29T05:24:00.030Z,2.65
2023-06-29T05:26:26.763Z,2.67
2023-06-29T05:29:04.438Z,2.92
2023-06-29T05:31:33.352Z,2.17
2023-06-29T05:34:00.324Z,2.28
2023-06-29T05:36:27.786Z,2.40
2023-06-29T05:38:54.645Z,3.15
2023-06-29T05:41:21.406Z,3.00
2023-06-29T05:43:48.284Z,2.63
2023-06-29T05:46:15.077Z,2.90
2023-06-29T05:48:41.834Z,2.55
2023-06-29T05:51:08.564Z,2.47
2023-06-29T05:53:35.430Z,2.58
2023-06-29T05:56:02.140Z,2.58
2023-06-29T05:58:29.132Z,2.45
2023-06-29T06:00:55.916Z,2.72
2023-06-29T06:03:23.605Z,2.85
2023-06-29T06:05:50.629Z,2.70
2023-06-29T06:08:17.392Z,3.10
2023-06-29T06:10:44.459Z,2.55
2023-06-29T06:13:11.372Z,2.78
2023-06-29T06:15:38.089Z,2.70
2023-06-29T06:18:05.002Z,2.33
2023-06-29T06:20:31.845Z,2.40
2023-06-29T06:22:58.835Z,2.63
2023-06-29T06:25:25.601Z,2.72
2023-06-29T06:27:52.695Z,2.45
2023-06-29T06:30:20.825Z,2.35
2023-06-29T06:32:47.559Z,2.88
2023-06-29T06:35:14.687Z,2.50
2023-06-29T06:37:41.799Z,2.70
2023-06-29T06:40:09.718Z,2.55
2023-06-29T06:42:37.294Z,3.08
2023-06-29T06:45:05.258Z,3.10
2023-06-29T06:47:32.813Z,2.72
2023-06-29T06:50:00.402Z,2.70
2023-06-29T06:52:27.970Z,2.30
2023-06-29T06:54:55.420Z,2.33
2023-06-29T06:57:22.204Z,2.03
2023-06-29T06:59:49.118Z,2.33
2023-06-29T07:02:16.245Z,2.10
2023-06-29T07:04:43.034Z,2.38
2023-06-29T07:07:09.989Z,2.20
2023-06-29T07:09:36.905Z,2.22
2023-06-29T07:12:03.804Z,2.00
2023-06-29T07:14:30.532Z,1.88
2023-06-29T07:16:57.305Z,2.08
2023-06-29T07:24:23.543Z,1.77
2023-06-29T07:26:50.555Z,2.20
2023-06-29T07:29:17.278Z,2.05
2023-06-29T07:31:44.030Z,1.88
2023-06-29T07:34:11.115Z,1.85
2023-06-29T07:36:38.476Z,1.90
2023-06-29T07:39:05.212Z,1.60
2023-06-29T07:41:32.908Z,1.60
2023-06-29T07:44:01.120Z,1.75
2023-06-29T07:46:28.512Z,2.05
2023-06-29T07:48:56.798Z,1.90
2023-06-29T07:51:25.299Z,2.10
2023-06-29T07:53:53.352Z,2.17
2023-06-29T07:56:20.429Z,1.88
2023-06-29T07:58:47.746Z,1.80
2023-06-29T08:01:14.643Z,1.90
2023-06-29T08:04:01.012Z,1.70
2023-06-29T08:08:57.943Z,1.42
2023-06-29T08:11:24.875Z,1.33
2023-06-29T08:13:51.671Z,1.40
2023-06-29T08:16:18.504Z,1.52
2023-06-29T08:18:45.307Z,1.25
2023-06-29T08:21:12.517Z,2.08
2023-06-29T08:23:39.297Z,2.15
2023-06-29T08:26:06.168Z,1.55
2023-06-29T08:28:32.896Z,1.88
2023-06-29T08:30:59.635Z,1.60
2023-06-29T08:33:26.580Z,1.70
2023-06-29T08:35:53.459Z,1.40
2023-06-29T08:38:20.279Z,1.60
2023-06-29T08:40:50.738Z,1.60
2023-06-29T08:43:19.055Z,1.30
2023-06-29T08:45:47.093Z,1.45
2023-06-29T08:48:15.266Z,1.20
2023-06-29T08:50:46.635Z,1.13
2023-06-29T08:53:14.842Z,1.35
2023-06-29T08:55:44.049Z,1.50
2023-06-29T08:58:11.365Z,1.25
2023-06-29T09:00:38.709Z,1.40
2023-06-29T09:03:06.130Z,1.30
2023-06-29T09:05:33.679Z,1.30
2023-06-29T09:08:00.604Z,1.00
2023-06-29T09:10:27.471Z,1.17
2023-06-29T09:12:55.270Z,1.25
2023-06-29T09:15:26.197Z,1.00
2023-06-29T09:17:56.701Z,1.05
2023-06-29T09:20:24.350Z,1.23
2023-06-29T09:22:52.488Z,1.10
2023-06-29T09:25:33.014Z,1.13
2023-06-29T09:28:06.428Z,0.98
2023-06-29T09:33:08.790Z,1.10
2023-06-29T09:35:37.453Z,1.30
2023-06-29T09:38:04.493Z,1.40
2023-06-29T09:40:31.395Z,1.20
2023-06-29T09:43:02.690Z,1.35
2023-06-29T09:45:31.475Z,1.17
2023-06-29T09:50:28.753Z,1.00
2023-06-29T09:52:56.433Z,1.00
2023-06-29T09:55:33.944Z,0.93
2023-06-29T09:58:01.585Z,0.90
2023-06-29T10:00:29.056Z,1.05
2023-06-29T10:02:56.236Z,1.15
2023-06-29T10:05:23.123Z,1.23
2023-06-29T10:07:54.301Z,1.27
2023-06-29T10:10:24.628Z,1.13
2023-06-29T10:12:58.490Z,1.25
2023-06-29T10:15:27.448Z,1.10
2023-06-29T10:18:00.856Z,1.42
2023-06-29T10:20:31.334Z,1.02
2023-06-29T10:23:00.309Z,0.90
2023-06-29T10:25:29.294Z,1.10
2023-06-29T10:27:57.289Z,1.45
2023-06-29T10:30:24.264Z,1.48
2023-06-29T10:32:52.198Z,1.70
2023-06-29T10:35:18.990Z,1.70
2023-06-29T10:37:48.543Z,1.90
2023-06-29T10:40:17.228Z,1.80
2023-06-29T10:42:43.940Z,1.77
2023-06-29T10:45:19.690Z,1.92
2023-06-29T10:48:00.182Z,2.20
2023-06-29T10:50:31.206Z,2.30
2023-06-29T10:53:02.803Z,2.25
2023-06-29T10:55:40.057Z,2.17
2023-06-29T10:58:14.038Z,2.55
2023-06-29T11:00:41.411Z,1.88
2023-06-29T11:03:10.638Z,2.05
2023-06-29T11:05:38.684Z,2.15
2023-06-29T11:08:07.450Z,2.10
2023-06-29T11:10:35.236Z,2.08
2023-06-29T11:13:08.673Z,2.38
2023-06-29T11:15:35.815Z,1.90
2023-06-29T11:18:10.130Z,2.20
2023-06-29T11:20:40.647Z,1.98
2023-06-29T11:23:08.485Z,2.00
2023-06-29T11:25:37.003Z,2.22
2023-06-29T11:28:04.215Z,2.58
2023-06-29T11:30:31.108Z,2.55
2023-06-29T11:33:00.900Z,2.90
2023-06-29T11:38:01.938Z,3.15
2023-06-29T11:40:29.832Z,3.35
2023-06-29T11:42:56.817Z,3.40
2023-06-29T11:45:24.619Z,2.78
2023-06-29T11:47:55.954Z,3.20
2023-06-29T11:50:24.601Z,3.40
2023-06-29T11:52:52.204Z,3.47
2023-06-29T11:58:06.478Z,4.35
2023-06-29T12:00:34.522Z,4.40
2023-06-29T12:03:08.991Z,4.43
2023-06-29T12:05:41.317Z,4.30
2023-06-29T12:08:11.440Z,4.05
2023-06-29T12:10:39.829Z,3.90
2023-06-29T12:13:09.818Z,5.43
2023-06-29T12:15:36.609Z,5.35
2023-06-29T12:18:13.606Z,5.22
2023-06-29T12:20:43.584Z,4.53
2023-06-29T12:23:12.326Z,3.83
2023-06-29T12:25:43.962Z,3.58
2023-06-29T12:28:11.066Z,4.10
2023-06-29T12:30:38.103Z,4.43
2023-06-29T12:33:04.941Z,4.65
2023-06-29T12:35:31.740Z,4.18
2023-06-29T12:37:59.118Z,4.20
2023-06-29T12:40:25.954Z,4.50
2023-06-29T12:42:55.770Z,4.35
2023-06-29T12:45:22.940Z,4.75
2023-06-29T12:47:49.737Z,3.75
2023-06-29T12:50:17.654Z,4.40
2023-06-29T12:52:48.233Z,4.72
2023-06-29T12:55:16.276Z,4.30
2023-06-29T12:57:44.620Z,4.93
2023-06-29T13:00:13.498Z,3.75
2023-06-29T13:02:41.550Z,3.30
2023-06-29T13:05:09.207Z,3.63
2023-06-29T13:07:37.123Z,3.15
2023-06-29T13:10:05.049Z,2.80
2023-06-29T13:12:32.267Z,2.80
2023-06-29T13:14:59.405Z,2.55
2023-06-29T13:17:26.477Z,3.03
2023-06-29T13:19:53.210Z,3.15
2023-06-29T13:22:19.974Z,2.50
2023-06-29T13:24:48.076Z,2.63
2023-06-29T13:27:15.064Z,2.70
2023-06-29T13:29:41.820Z,3.20
2023-06-29T13:32:09.064Z,3.90
2023-06-29T13:34:35.954Z,5.00
2023-06-29T13:37:02.835Z,5.10
2023-06-29T13:39:30.233Z,4.97
2023-06-29T13:41:56.995Z,5.18
2023-06-29T13:44:23.766Z,6.22
2023-06-29T13:46:50.584Z,6.25
2023-06-29T13:49:17.432Z,6.63
2023-06-29T13:51:45.303Z,6.55
2023-06-29T13:54:13.135Z,3.30
2023-06-29T13:56:39.922Z,3.95
2023-06-29T13:59:09.199Z,4.07
2023-06-29T14:01:41.053Z,6.15
2023-06-29T14:04:09.922Z,6.53
2023-06-29T14:06:40.673Z,5.60
2023-06-29T14:09:08.907Z,5.95
2023-06-29T14:11:35.977Z,6.07
2023-06-29T14:14:02.730Z,6.22
2023-06-29T14:16:30.625Z,5.72
2023-06-29T14:18:58.686Z,5.43
2023-06-29T14:21:25.568Z,7.30
2023-06-29T14:23:52.566Z,7.25
2023-06-29T14:26:19.377Z,6.95
2023-06-29T14:28:46.133Z,7.70
2023-06-29T14:31:12.935Z,8.07
2023-06-29T14:33:39.904Z,7.30
2023-06-29T14:36:06.909Z,6.43
2023-06-29T14:38:34.112Z,6.82
2023-06-29T14:41:03.093Z,6.50
2023-06-29T14:43:30.501Z,6.97
2023-06-29T14:45:57.763Z,7.60
2023-06-29T14:48:25.070Z,9.98
2023-06-29T14:50:52.917Z,9.88
2023-06-29T14:53:23.550Z,9.85
2023-06-29T14:55:50.588Z,9.50
2023-06-29T14:58:17.907Z,10.40
2023-06-29T15:00:45.535Z,9.82
2023-06-29T15:03:12.477Z,10.43
2023-06-29T15:05:39.254Z,10.32
2023-06-29T15:08:05.967Z,6.07
2023-06-29T15:10:32.871Z,4.97
2023-06-29T15:12:59.673Z,5.18
2023-06-29T15:15:26.641Z,4.60
2023-06-29T15:17:53.557Z,4.90
2023-06-29T15:20:20.491Z,4.18
2023-06-29T15:22:47.210Z,3.58
2023-06-29T15:25:14.141Z,3.90
2023-06-29T15:27:41.522Z,3.75
2023-06-29T15:30:08.733Z,4.00
2023-06-29T15:32:35.789Z,4.60
2023-06-29T15:35:03.987Z,4.00
2023-06-29T15:37:32.863Z,3.75
2023-06-29T15:39:59.614Z,3.83
2023-06-29T15:42:29.056Z,4.95
2023-06-29T15:44:56.072Z,4.93
2023-06-29T15:47:23.159Z,4.13
2023-06-29T15:49:50.310Z,5.00
2023-06-29T15:52:17.299Z,4.38
2023-06-29T15:54:44.164Z,4.95
2023-06-29T15:57:11.301Z,4.10
2023-06-29T15:59:38.112Z,4.15
2023-06-29T16:02:05.327Z,4.40
2023-06-29T16:04:32.140Z,4.10
2023-06-29T16:06:59.046Z,4.18
2023-06-29T16:09:28.169Z,4.15
2023-06-29T16:11:55.284Z,3.80
2023-06-29T16:14:22.042Z,3.40
2023-06-29T16:16:48.808Z,3.50
2023-06-29T16:19:17.625Z,3.63
2023-06-29T16:21:47.743Z,3.33
2023-06-29T16:24:14.707Z,3.28
2023-06-29T16:26:41.536Z,3.60
2023-06-29T16:29:08.336Z,3.42
2023-06-29T16:31:36.160Z,3.40
2023-06-29T16:34:03.715Z,3.35
2023-06-29T16:36:31.195Z,3.75
2023-06-29T16:38:58.395Z,3.63
2023-06-29T16:41:25.163Z,3.72
2023-06-29T16:43:52.080Z,3.67
2023-06-29T16:46:19.858Z,3.25
2023-06-29T16:49:01.015Z,3.53
2023-06-29T16:51:29.242Z,3.38
2023-06-29T16:53:56.587Z,3.67
2023-06-29T16:56:23.402Z,4.13
2023-06-29T16:58:50.366Z,3.90
2023-06-29T17:01:18.201Z,4.00
2023-06-29T17:03:45.154Z,3.70
2023-06-29T17:06:12.099Z,3.88
2023-06-29T17:08:40.897Z,4.35
2023-06-29T17:11:08.201Z,4.03
2023-06-29T17:13:35.340Z,4.18
2023-06-29T17:16:02.629Z,4.55
2023-06-29T17:18:29.543Z,3.90
2023-06-29T17:20:56.334Z,3.67
2023-06-29T17:23:23.180Z,3.30
2023-06-29T17:25:50.984Z,3.50
2023-06-29T17:28:18.974Z,3.20
2023-06-29T17:30:46.276Z,2.50
2023-06-29T17:33:14.364Z,2.28
2023-06-29T17:35:41.195Z,2.58
2023-06-29T17:38:08.030Z,2.30
2023-06-29T17:40:34.804Z,2.30
2023-06-29T17:43:02.128Z,2.60
2023-06-29T17:45:29.190Z,2.42
2023-06-29T17:47:56.468Z,2.92
2023-06-29T17:50:23.409Z,2.35
2023-06-29T17:52:50.448Z,2.53
2023-06-29T17:55:18.223Z,2.95
2023-06-29T17:57:45.238Z,2.95
2023-06-29T18:00:13.883Z,2.67
2023-06-29T18:02:40.796Z,2.50
2023-06-29T18:05:08.925Z,1.92
2023-06-29T18:07:36.097Z,2.50
2023-06-29T18:10:07.945Z,2.70
2023-06-29T18:12:36.588Z,2.30
2023-06-29T18:15:04.358Z,2.30
2023-06-29T18:17:31.270Z,2.60
2023-06-29T18:19:58.902Z,2.47
2023-06-29T18:22:26.157Z,2.80
2023-06-29T18:24:53.190Z,2.53
2023-06-29T18:27:20.116Z,2.75
2023-06-29T18:29:46.931Z,2.97
2023-06-29T18:32:13.865Z,2.88
2023-06-29T18:34:40.608Z,3.10
2023-06-29T18:37:07.506Z,2.65
2023-06-29T18:39:34.330Z,2.90
2023-06-29T18:42:01.123Z,3.22
2023-06-29T18:44:27.852Z,3.25
2023-06-29T18:47:08.784Z,3.60
2023-06-29T18:49:49.907Z,3.08
2023-06-29T18:52:18.966Z,2.55
2023-06-29T18:54:46.036Z,3.88
2023-06-29T18:57:12.889Z,3.25
2023-06-29T18:59:39.695Z,3.78
2023-06-29T19:02:06.891Z,2.65
2023-06-29T19:04:33.999Z,3.58
2023-06-29T19:07:01.366Z,2.80
2023-06-29T19:09:29.118Z,3.17
2023-06-29T19:11:57.009Z,2.90
2023-06-29T19:14:24.057Z,3.50
2023-06-29T19:16:50.890Z,3.50
2023-06-29T19:19:18.028Z,4.10
2023-06-29T19:21:48.988Z,3.63
2023-06-29T19:24:16.966Z,4.07
2023-06-29T19:26:43.921Z,3.17
2023-06-29T19:29:13.949Z,3.40
2023-06-29T19:31:42.136Z,3.63
2023-06-29T19:34:11.598Z,3.13
2023-06-29T19:36:39.412Z,3.40
2023-06-29T19:39:06.307Z,2.90
2023-06-29T19:41:33.079Z,3.20
2023-06-29T19:44:00.942Z,2.95
2023-06-29T19:46:27.836Z,3.45
2023-06-29T19:48:54.900Z,3.53
2023-06-29T19:51:21.901Z,3.33
2023-06-29T19:53:48.608Z,2.80
2023-06-29T19:56:15.518Z,2.88
2023-06-29T19:58:42.297Z,2.90
2023-06-29T20:01:09.096Z,2.83
2023-06-29T20:03:36.115Z,2.88
2023-06-29T20:06:03.642Z,3.40
2023-06-29T20:08:30.389Z,3.08
2023-06-29T20:10:57.120Z,5.25
2023-06-29T20:13:24.193Z,6.43
2023-06-29T20:15:51.163Z,7.40
2023-06-29T20:18:18.114Z,10.05
2023-06-29T20:20:44.883Z,11.32
2023-06-29T20:23:12.066Z,10.93
2023-06-29T20:25:39.428Z,11.40
2023-06-29T20:28:06.548Z,11.68
2023-06-29T20:30:33.803Z,11.50
2023-06-29T20:33:00.701Z,12.07
2023-06-29T20:35:27.801Z,11.60
2023-06-29T20:37:55.373Z,11.13
2023-06-29T20:40:22.127Z,11.02
2023-06-29T20:42:48.903Z,11.05
2023-06-29T20:45:15.656Z,11.90
2023-06-29T20:47:42.481Z,11.88
2023-06-29T20:50:09.561Z,12.45
2023-06-29T20:52:36.331Z,11.80
2023-06-29T20:55:03.421Z,12.25
2023-06-29T20:57:30.197Z,11.35
2023-06-29T20:59:56.938Z,12.20
2023-06-29T21:02:24.279Z,11.52
2023-06-29T21:04:51.263Z,11.52
2023-06-29T21:07:18.389Z,10.75
2023-06-29T21:09:45.202Z,11.88
2023-06-29T21:12:12.562Z,10.98
2023-06-29T21:14:39.508Z,12.38
2023-06-29T21:17:06.679Z,12.40
2023-06-29T21:19:33.832Z,12.80
2023-06-29T21:22:00.836Z,12.45
2023-06-29T21:24:27.821Z,12.48
2023-06-29T21:26:54.984Z,12.02
2023-06-29T21:29:40.800Z,11.80
2023-06-29T21:32:11.563Z,12.02
2023-06-29T21:34:39.023Z,11.98
2023-06-29T21:37:06.471Z,12.73
2023-06-29T21:39:33.353Z,12.75
2023-06-29T21:42:00.215Z,13.02
2023-06-29T21:44:27.196Z,12.60
2023-06-29T21:46:53.969Z,12.90
2023-06-29T21:49:21.793Z,12.68
2023-06-29T21:51:48.686Z,12.13
2023-06-29T21:54:15.525Z,13.43
2023-06-29T21:56:42.335Z,12.40
2023-06-29T21:59:09.206Z,13.48
2023-06-29T22:01:36.071Z,12.63
2023-06-29T22:04:03.274Z,12.82
2023-06-29T22:06:30.544Z,13.70
2023-06-29T22:08:57.712Z,13.23
2023-06-29T22:11:27.614Z,13.48
2023-06-29T22:13:54.522Z,14.40
2023-06-29T22:16:22.524Z,14.30
2023-06-29T22:18:51.734Z,12.65
2023-06-29T22:21:22.116Z,13.63
2023-06-29T22:23:51.086Z,13.60
2023-06-29T22:26:18.283Z,13.50
2023-06-29T22:28:45.611Z,13.70
2023-06-29T22:31:14.929Z,13.95
2023-06-29T22:33:41.740Z,13.43
2023-06-29T22:36:08.614Z,13.00
2023-06-29T22:38:35.987Z,13.40
2023-06-29T22:41:02.907Z,13.85
2023-06-29T22:43:29.620Z,13.25
2023-06-29T22:45:56.436Z,13.60
2023-06-29T22:48:23.431Z,13.38
2023-06-29T22:50:50.377Z,13.10
2023-06-29T22:53:17.262Z,13.45
2023-06-29T22:55:44.950Z,12.48
2023-06-29T22:58:11.869Z,13.98
2023-06-29T23:00:38.749Z,13.75
2023-06-29T23:03:05.720Z,13.27
2023-06-29T23:05:32.528Z,12.88
2023-06-29T23:07:59.250Z,14.48
2023-06-29T23:10:28.501Z,13.05
2023-06-29T23:12:55.351Z,13.60
2023-06-29T23:15:26.906Z,12.82
2023-06-29T23:17:54.710Z,13.80
2023-06-29T23:20:25.583Z,13.77
2023-06-29T23:22:52.356Z,13.32
2023-06-29T23:25:19.196Z,13.55
2023-06-29T23:27:45.970Z,13.27
2023-06-29T23:30:16.620Z,13.95
2023-06-29T23:32:46.087Z,12.93
2023-06-29T23:35:12.888Z,14.05
2023-06-29T23:37:39.603Z,14.15
2023-06-29T23:40:11.870Z,14.32
2023-06-29T23:42:39.244Z,13.73
2023-06-29T23:45:11.934Z,13.55
2023-06-29T23:47:39.570Z,14.15
2023-06-29T23:50:12.113Z,14.95
2023-06-29T23:55:15.314Z,13.02
2023-06-29T23:57:42.442Z,13.88
